sensor_id;sensor_type;location;lat;lon;timestamp;P1;durP1;ratioP1;P2;durP2;ratioP2
78897;SDS011;70344;44.736;37.800;2023-07-16T00:00:50;16.17;;;10.43;;
78897;SDS011;70344;44.736;37.800;2023-07-16T00:01:55;17.70;;;9.73;;
78897;SDS011;70344;44.736;37.800;2023-07-16T00:02:57;17.95;;;9.70;;
78897;SDS011;70344;44.736;37.800;2023-07-16T00:03:59;18.27;;;9.60;;
78897;SDS011;70344;44.736;37.800;2023-07-16T00:05:01;22.65;;;9.65;;
78897;SDS011;70344;44.736;37.800;2023-07-16T00:06:09;14.57;;;9.02;;
78897;SDS011;70344;44.736;37.800;2023-07-16T00:07:11;17.60;;;9.75;;
78897;SDS011;70344;44.736;37.800;2023-07-16T00:08:18;17.60;;;10.02;;
78897;SDS011;70344;44.736;37.800;2023-07-16T00:09:23;16.60;;;9.10;;
78897;SDS011;70344;44.736;37.800;2023-07-16T00:10:29;18.98;;;9.82;;
78897;SDS011;70344;44.736;37.800;2023-07-16T00:11:34;17.48;;;9.80;;
78897;SDS011;70344;44.736;37.800;2023-07-16T00:12:38;19.95;;;9.43;;
78897;SDS011;70344;44.736;37.800;2023-07-16T00:13:43;20.77;;;10.05;;
78897;SDS011;70344;44.736;37.800;2023-07-16T00:14:52;18.92;;;10.10;;
78897;SDS011;70344;44.736;37.800;2023-07-16T00:15:56;18.88;;;9.98;;
78897;SDS011;70344;44.736;37.800;2023-07-16T00:16:58;15.40;;;9.52;;
78897;SDS011;70344;44.736;37.800;2023-07-16T00:18:03;15.65;;;9.45;;
78897;SDS011;70344;44.736;37.800;2023-07-16T00:19:06;20.58;;;10.20;;
78897;SDS011;70344;44.736;37.800;2023-07-16T00:20:14;17.05;;;9.95;;
78897;SDS011;70344;44.736;37.800;2023-07-16T00:21:16;16.70;;;8.77;;
78897;SDS011;70344;44.736;37.800;2023-07-16T00:22:18;17.67;;;10.25;;
78897;SDS011;70344;44.736;37.800;2023-07-16T00:23:23;23.35;;;9.93;;
78897;SDS011;70344;44.736;37.800;2023-07-16T00:24:27;21.10;;;10.00;;
78897;SDS011;70344;44.736;37.800;2023-07-16T00:25:32;15.45;;;9.23;;
78897;SDS011;70344;44.736;37.800;2023-07-16T00:26:36;16.83;;;10.20;;
78897;SDS011;70344;44.736;37.800;2023-07-16T00:27:40;17.17;;;9.77;;
78897;SDS011;70344;44.736;37.800;2023-07-16T00:28:43;14.18;;;9.73;;
78897;SDS011;70344;44.736;37.800;2023-07-16T00:29:47;17.33;;;9.38;;
78897;SDS011;70344;44.736;37.800;2023-07-16T00:30:49;16.77;;;9.85;;
78897;SDS011;70344;44.736;37.800;2023-07-16T00:31:51;20.08;;;9.90;;
78897;SDS011;70344;44.736;37.800;2023-07-16T00:32:56;18.65;;;9.35;;
78897;SDS011;70344;44.736;37.800;2023-07-16T00:34:03;15.07;;;10.45;;
78897;SDS011;70344;44.736;37.800;2023-07-16T00:35:05;15.75;;;9.68;;
78897;SDS011;70344;44.736;37.800;2023-07-16T00:36:10;20.13;;;10.02;;
78897;SDS011;70344;44.736;37.800;2023-07-16T00:37:14;15.35;;;9.48;;
78897;SDS011;70344;44.736;37.800;2023-07-16T00:38:19;15.65;;;9.40;;
78897;SDS011;70344;44.736;37.800;2023-07-16T00:39:22;21.23;;;9.20;;
78897;SDS011;70344;44.736;37.800;2023-07-16T00:40:28;23.67;;;11.57;;
78897;SDS011;70344;44.736;37.800;2023-07-16T00:41:34;24.38;;;10.10;;
78897;SDS011;70344;44.736;37.800;2023-07-16T00:42:36;29.70;;;10.40;;
78897;SDS011;70344;44.736;37.800;2023-07-16T00:43:42;30.50;;;11.27;;
78897;SDS011;70344;44.736;37.800;2023-07-16T00:44:47;19.55;;;10.57;;
78897;SDS011;70344;44.736;37.800;2023-07-16T00:45:51;22.50;;;10.80;;
78897;SDS011;70344;44.736;37.800;2023-07-16T00:46:59;15.77;;;10.45;;
78897;SDS011;70344;44.736;37.800;2023-07-16T00:48:01;18.60;;;10.68;;
78897;SDS011;70344;44.736;37.800;2023-07-16T00:49:03;21.13;;;10.38;;
78897;SDS011;70344;44.736;37.800;2023-07-16T00:50:05;19.20;;;10.18;;
78897;SDS011;70344;44.736;37.800;2023-07-16T00:51:09;18.65;;;9.68;;
78897;SDS011;70344;44.736;37.800;2023-07-16T00:52:14;20.65;;;9.88;;
78897;SDS011;70344;44.736;37.800;2023-07-16T00:53:24;15.00;;;9.30;;
78897;SDS011;70344;44.736;37.800;2023-07-16T00:55:30;13.13;;;9.25;;
78897;SDS011;70344;44.736;37.800;2023-07-16T00:56:35;15.38;;;8.90;;
78897;SDS011;70344;44.736;37.800;2023-07-16T00:57:38;14.93;;;8.90;;
78897;SDS011;70344;44.736;37.800;2023-07-16T00:58:41;17.50;;;9.45;;
78897;SDS011;70344;44.736;37.800;2023-07-16T00:59:43;15.02;;;9.32;;
78897;SDS011;70344;44.736;37.800;2023-07-16T01:00:47;15.10;;;8.70;;
78897;SDS011;70344;44.736;37.800;2023-07-16T01:01:52;13.95;;;9.32;;
78897;SDS011;70344;44.736;37.800;2023-07-16T01:02:54;17.55;;;9.88;;
78897;SDS011;70344;44.736;37.800;2023-07-16T01:03:56;16.58;;;9.68;;
78897;SDS011;70344;44.736;37.800;2023-07-16T01:05:00;14.50;;;8.77;;
78897;SDS011;70344;44.736;37.800;2023-07-16T01:06:09;20.92;;;9.52;;
78897;SDS011;70344;44.736;37.800;2023-07-16T01:07:28;13.43;;;9.55;;
78897;SDS011;70344;44.736;37.800;2023-07-16T01:08:56;17.33;;;10.02;;
78897;SDS011;70344;44.736;37.800;2023-07-16T01:10:13;15.48;;;9.25;;
78897;SDS011;70344;44.736;37.800;2023-07-16T01:11:15;16.55;;;9.75;;
78897;SDS011;70344;44.736;37.800;2023-07-16T01:12:22;15.10;;;9.52;;
78897;SDS011;70344;44.736;37.800;2023-07-16T01:13:25;16.33;;;9.20;;
78897;SDS011;70344;44.736;37.800;2023-07-16T01:14:30;16.88;;;9.63;;
78897;SDS011;70344;44.736;37.800;2023-07-16T01:15:32;16.40;;;9.45;;
78897;SDS011;70344;44.736;37.800;2023-07-16T01:16:34;16.95;;;9.27;;
78897;SDS011;70344;44.736;37.800;2023-07-16T01:17:41;15.38;;;9.68;;
78897;SDS011;70344;44.736;37.800;2023-07-16T01:18:45;14.82;;;9.02;;
78897;SDS011;70344;44.736;37.800;2023-07-16T01:19:52;16.58;;;9.95;;
78897;SDS011;70344;44.736;37.800;2023-07-16T01:20:54;14.82;;;9.43;;
78897;SDS011;70344;44.736;37.800;2023-07-16T01:23:46;14.75;;;9.27;;
78897;SDS011;70344;44.736;37.800;2023-07-16T01:26:51;19.20;;;9.02;;
78897;SDS011;70344;44.736;37.800;2023-07-16T01:30:55;14.80;;;10.00;;
78897;SDS011;70344;44.736;37.800;2023-07-16T01:32:03;24.00;;;10.30;;
78897;SDS011;70344;44.736;37.800;2023-07-16T01:34:11;16.10;;;9.93;;
78897;SDS011;70344;44.736;37.800;2023-07-16T01:35:15;15.93;;;10.40;;
78897;SDS011;70344;44.736;37.800;2023-07-16T01:36:17;18.73;;;10.45;;
78897;SDS011;70344;44.736;37.800;2023-07-16T01:37:21;22.30;;;10.93;;
78897;SDS011;70344;44.736;37.800;2023-07-16T01:38:25;16.23;;;11.05;;
78897;SDS011;70344;44.736;37.800;2023-07-16T01:39:31;15.60;;;10.63;;
78897;SDS011;70344;44.736;37.800;2023-07-16T01:40:36;15.02;;;10.65;;
78897;SDS011;70344;44.736;37.800;2023-07-16T01:41:40;18.00;;;10.95;;
78897;SDS011;70344;44.736;37.800;2023-07-16T01:42:44;16.98;;;10.48;;
78897;SDS011;70344;44.736;37.800;2023-07-16T01:43:46;17.90;;;11.50;;
78897;SDS011;70344;44.736;37.800;2023-07-16T01:44:50;18.88;;;11.13;;
78897;SDS011;70344;44.736;37.800;2023-07-16T01:45:55;23.73;;;10.70;;
78897;SDS011;70344;44.736;37.800;2023-07-16T01:47:04;19.13;;;10.63;;
78897;SDS011;70344;44.736;37.800;2023-07-16T01:48:37;18.35;;;11.10;;
78897;SDS011;70344;44.736;37.800;2023-07-16T01:49:43;18.33;;;11.13;;
78897;SDS011;70344;44.736;37.800;2023-07-16T01:50:45;16.92;;;11.60;;
78897;SDS011;70344;44.736;37.800;2023-07-16T01:51:47;19.38;;;11.90;;
78897;SDS011;70344;44.736;37.800;2023-07-16T01:52:49;18.92;;;11.32;;
78897;SDS011;70344;44.736;37.800;2023-07-16T01:53:52;18.38;;;12.18;;
78897;SDS011;70344;44.736;37.800;2023-07-16T01:54:58;21.20;;;11.52;;
78897;SDS011;70344;44.736;37.800;2023-07-16T01:56:00;20.88;;;11.57;;
78897;SDS011;70344;44.736;37.800;2023-07-16T01:57:05;18.30;;;11.48;;
78897;SDS011;70344;44.736;37.800;2023-07-16T01:58:08;23.83;;;13.50;;
78897;SDS011;70344;44.736;37.800;2023-07-16T01:59:11;18.38;;;11.38;;
78897;SDS011;70344;44.736;37.800;2023-07-16T02:00:12;19.83;;;12.98;;
78897;SDS011;70344;44.736;37.800;2023-07-16T02:02:24;17.52;;;11.75;;
78897;SDS011;70344;44.736;37.800;2023-07-16T02:03:26;18.52;;;12.07;;
78897;SDS011;70344;44.736;37.800;2023-07-16T02:04:28;18.60;;;12.60;;
78897;SDS011;70344;44.736;37.800;2023-07-16T02:05:35;18.55;;;11.88;;
78897;SDS011;70344;44.736;37.800;2023-07-16T02:06:38;16.27;;;11.75;;
78897;SDS011;70344;44.736;37.800;2023-07-16T02:07:43;19.77;;;12.70;;
78897;SDS011;70344;44.736;37.800;2023-07-16T02:08:46;16.55;;;11.80;;
78897;SDS011;70344;44.736;37.800;2023-07-16T02:09:53;18.92;;;11.60;;
78897;SDS011;70344;44.736;37.800;2023-07-16T02:10:57;18.13;;;12.35;;
78897;SDS011;70344;44.736;37.800;2023-07-16T02:11:59;17.25;;;12.32;;
78897;SDS011;70344;44.736;37.800;2023-07-16T02:13:03;18.90;;;12.15;;
78897;SDS011;70344;44.736;37.800;2023-07-16T02:14:05;19.38;;;12.07;;
78897;SDS011;70344;44.736;37.800;2023-07-16T02:15:07;18.90;;;11.98;;
78897;SDS011;70344;44.736;37.800;2023-07-16T02:16:15;25.65;;;13.18;;
78897;SDS011;70344;44.736;37.800;2023-07-16T02:17:19;22.20;;;12.63;;
78897;SDS011;70344;44.736;37.800;2023-07-16T02:18:22;22.67;;;11.85;;
78897;SDS011;70344;44.736;37.800;2023-07-16T02:19:24;27.30;;;13.13;;
78897;SDS011;70344;44.736;37.800;2023-07-16T02:20:31;25.38;;;12.80;;
78897;SDS011;70344;44.736;37.800;2023-07-16T02:21:33;15.90;;;11.48;;
78897;SDS011;70344;44.736;37.800;2023-07-16T02:22:37;20.13;;;12.50;;
78897;SDS011;70344;44.736;37.800;2023-07-16T02:23:41;19.83;;;13.15;;
78897;SDS011;70344;44.736;37.800;2023-07-16T02:24:46;20.73;;;13.20;;
78897;SDS011;70344;44.736;37.800;2023-07-16T02:25:48;21.20;;;12.52;;
78897;SDS011;70344;44.736;37.800;2023-07-16T02:26:51;20.10;;;13.15;;
78897;SDS011;70344;44.736;37.800;2023-07-16T02:28:57;21.10;;;12.93;;
78897;SDS011;70344;44.736;37.800;2023-07-16T02:30:00;20.75;;;12.77;;
78897;SDS011;70344;44.736;37.800;2023-07-16T02:31:07;19.77;;;12.85;;
78897;SDS011;70344;44.736;37.800;2023-07-16T02:32:08;16.52;;;11.70;;
78897;SDS011;70344;44.736;37.800;2023-07-16T02:33:12;17.98;;;12.20;;
78897;SDS011;70344;44.736;37.800;2023-07-16T02:34:17;18.38;;;12.20;;
78897;SDS011;70344;44.736;37.800;2023-07-16T02:35:19;17.08;;;11.80;;
78897;SDS011;70344;44.736;37.800;2023-07-16T02:36:20;17.85;;;11.98;;
78897;SDS011;70344;44.736;37.800;2023-07-16T02:37:24;19.77;;;11.98;;
78897;SDS011;70344;44.736;37.800;2023-07-16T02:38:32;20.52;;;12.20;;
78897;SDS011;70344;44.736;37.800;2023-07-16T02:39:38;18.45;;;12.02;;
78897;SDS011;70344;44.736;37.800;2023-07-16T02:40:43;18.38;;;12.35;;
78897;SDS011;70344;44.736;37.800;2023-07-16T02:41:46;17.05;;;11.95;;
78897;SDS011;70344;44.736;37.800;2023-07-16T02:42:48;21.90;;;12.45;;
78897;SDS011;70344;44.736;37.800;2023-07-16T02:43:58;18.63;;;12.10;;
78897;SDS011;70344;44.736;37.800;2023-07-16T02:45:04;20.83;;;11.93;;
78897;SDS011;70344;44.736;37.800;2023-07-16T02:46:06;16.23;;;11.93;;
78897;SDS011;70344;44.736;37.800;2023-07-16T02:47:08;21.63;;;12.15;;
78897;SDS011;70344;44.736;37.800;2023-07-16T02:48:10;21.15;;;12.80;;
78897;SDS011;70344;44.736;37.800;2023-07-16T02:49:11;20.08;;;12.73;;
78897;SDS011;70344;44.736;37.800;2023-07-16T02:50:13;19.65;;;11.93;;
78897;SDS011;70344;44.736;37.800;2023-07-16T02:51:18;18.35;;;12.40;;
78897;SDS011;70344;44.736;37.800;2023-07-16T02:52:22;26.65;;;12.82;;
78897;SDS011;70344;44.736;37.800;2023-07-16T02:53:27;21.50;;;12.43;;
78897;SDS011;70344;44.736;37.800;2023-07-16T02:54:29;23.38;;;12.45;;
78897;SDS011;70344;44.736;37.800;2023-07-16T02:55:31;22.17;;;12.57;;
78897;SDS011;70344;44.736;37.800;2023-07-16T02:56:35;23.02;;;11.80;;
78897;SDS011;70344;44.736;37.800;2023-07-16T02:57:39;19.25;;;11.98;;
78897;SDS011;70344;44.736;37.800;2023-07-16T02:58:46;19.83;;;11.25;;
78897;SDS011;70344;44.736;37.800;2023-07-16T02:59:51;20.58;;;12.30;;
78897;SDS011;70344;44.736;37.800;2023-07-16T03:00:56;20.70;;;12.32;;
78897;SDS011;70344;44.736;37.800;2023-07-16T03:01:58;23.05;;;13.07;;
78897;SDS011;70344;44.736;37.800;2023-07-16T03:03:02;23.35;;;12.88;;
78897;SDS011;70344;44.736;37.800;2023-07-16T03:04:07;22.63;;;13.35;;
78897;SDS011;70344;44.736;37.800;2023-07-16T03:05:09;20.23;;;12.73;;
78897;SDS011;70344;44.736;37.800;2023-07-16T03:06:10;20.75;;;12.32;;
78897;SDS011;70344;44.736;37.800;2023-07-16T03:07:15;22.98;;;13.05;;
78897;SDS011;70344;44.736;37.800;2023-07-16T03:09:26;26.25;;;13.25;;
78897;SDS011;70344;44.736;37.800;2023-07-16T03:10:28;21.15;;;11.73;;
78897;SDS011;70344;44.736;37.800;2023-07-16T03:11:29;21.58;;;12.73;;
78897;SDS011;70344;44.736;37.800;2023-07-16T03:12:33;20.13;;;13.05;;
78897;SDS011;70344;44.736;37.800;2023-07-16T03:13:35;20.45;;;13.10;;
78897;SDS011;70344;44.736;37.800;2023-07-16T03:14:40;23.95;;;12.55;;
78897;SDS011;70344;44.736;37.800;2023-07-16T03:15:46;20.15;;;12.30;;
78897;SDS011;70344;44.736;37.800;2023-07-16T03:16:48;19.52;;;12.65;;
78897;SDS011;70344;44.736;37.800;2023-07-16T03:17:52;22.50;;;12.85;;
78897;SDS011;70344;44.736;37.800;2023-07-16T03:18:57;20.95;;;12.52;;
78897;SDS011;70344;44.736;37.800;2023-07-16T03:19:59;22.23;;;12.18;;
78897;SDS011;70344;44.736;37.800;2023-07-16T03:21:04;22.75;;;13.02;;
78897;SDS011;70344;44.736;37.800;2023-07-16T03:22:08;24.02;;;12.35;;
78897;SDS011;70344;44.736;37.800;2023-07-16T03:23:13;20.55;;;11.68;;
78897;SDS011;70344;44.736;37.800;2023-07-16T03:24:15;24.15;;;11.93;;
78897;SDS011;70344;44.736;37.800;2023-07-16T03:25:19;20.70;;;12.32;;
78897;SDS011;70344;44.736;37.800;2023-07-16T03:26:21;22.63;;;12.35;;
78897;SDS011;70344;44.736;37.800;2023-07-16T03:27:25;19.35;;;11.07;;
78897;SDS011;70344;44.736;37.800;2023-07-16T03:28:33;17.25;;;11.93;;
78897;SDS011;70344;44.736;37.800;2023-07-16T03:29:40;22.27;;;12.35;;
78897;SDS011;70344;44.736;37.800;2023-07-16T03:30:46;20.05;;;11.98;;
78897;SDS011;70344;44.736;37.800;2023-07-16T03:31:51;18.33;;;11.75;;
78897;SDS011;70344;44.736;37.800;2023-07-16T03:32:57;20.00;;;12.02;;
78897;SDS011;70344;44.736;37.800;2023-07-16T03:34:00;17.70;;;12.63;;
78897;SDS011;70344;44.736;37.800;2023-07-16T03:35:05;18.38;;;11.25;;
78897;SDS011;70344;44.736;37.800;2023-07-16T03:36:10;19.05;;;11.75;;
78897;SDS011;70344;44.736;37.800;2023-07-16T03:37:17;23.45;;;12.50;;
78897;SDS011;70344;44.736;37.800;2023-07-16T03:38:19;23.35;;;12.48;;
78897;SDS011;70344;44.736;37.800;2023-07-16T03:39:21;22.50;;;12.18;;
78897;SDS011;70344;44.736;37.800;2023-07-16T03:40:28;23.85;;;11.77;;
78897;SDS011;70344;44.736;37.800;2023-07-16T03:41:31;20.85;;;11.75;;
78897;SDS011;70344;44.736;37.800;2023-07-16T03:42:37;25.88;;;11.15;;
78897;SDS011;70344;44.736;37.800;2023-07-16T03:43:39;22.17;;;11.18;;
78897;SDS011;70344;44.736;37.800;2023-07-16T03:44:53;18.67;;;10.57;;
78897;SDS011;70344;44.736;37.800;2023-07-16T03:45:55;23.98;;;10.82;;
78897;SDS011;70344;44.736;37.800;2023-07-16T03:46:58;24.85;;;10.85;;
78897;SDS011;70344;44.736;37.800;2023-07-16T03:48:04;17.02;;;9.93;;
78897;SDS011;70344;44.736;37.800;2023-07-16T03:49:09;19.05;;;10.57;;
78897;SDS011;70344;44.736;37.800;2023-07-16T03:50:10;20.52;;;10.60;;
78897;SDS011;70344;44.736;37.800;2023-07-16T03:51:17;22.33;;;10.60;;
78897;SDS011;70344;44.736;37.800;2023-07-16T03:52:22;19.30;;;10.25;;
78897;SDS011;70344;44.736;37.800;2023-07-16T03:53:26;21.02;;;10.63;;
78897;SDS011;70344;44.736;37.800;2023-07-16T03:54:28;17.65;;;10.48;;
78897;SDS011;70344;44.736;37.800;2023-07-16T03:55:34;20.42;;;9.57;;
78897;SDS011;70344;44.736;37.800;2023-07-16T03:56:37;16.55;;;10.68;;
78897;SDS011;70344;44.736;37.800;2023-07-16T03:57:40;23.27;;;9.35;;
78897;SDS011;70344;44.736;37.800;2023-07-16T03:58:44;14.73;;;7.97;;
78897;SDS011;70344;44.736;37.800;2023-07-16T03:59:48;13.02;;;7.95;;
78897;SDS011;70344;44.736;37.800;2023-07-16T04:00:50;20.13;;;8.32;;
78897;SDS011;70344;44.736;37.800;2023-07-16T04:01:56;18.30;;;8.82;;
78897;SDS011;70344;44.736;37.800;2023-07-16T04:02:57;16.73;;;8.18;;
78897;SDS011;70344;44.736;37.800;2023-07-16T04:03:59;18.92;;;8.43;;
78897;SDS011;70344;44.736;37.800;2023-07-16T04:05:02;16.70;;;7.85;;
78897;SDS011;70344;44.736;37.800;2023-07-16T04:06:05;16.40;;;7.72;;
78897;SDS011;70344;44.736;37.800;2023-07-16T04:07:10;16.05;;;7.40;;
78897;SDS011;70344;44.736;37.800;2023-07-16T04:08:14;14.73;;;8.00;;
78897;SDS011;70344;44.736;37.800;2023-07-16T04:09:16;18.33;;;7.90;;
78897;SDS011;70344;44.736;37.800;2023-07-16T04:10:18;17.15;;;7.55;;
78897;SDS011;70344;44.736;37.800;2023-07-16T04:11:22;17.15;;;7.78;;
78897;SDS011;70344;44.736;37.800;2023-07-16T04:12:27;17.77;;;7.10;;
78897;SDS011;70344;44.736;37.800;2023-07-16T04:13:31;11.82;;;5.97;;
78897;SDS011;70344;44.736;37.800;2023-07-16T04:14:33;18.88;;;6.97;;
78897;SDS011;70344;44.736;37.800;2023-07-16T04:15:35;13.75;;;6.43;;
78897;SDS011;70344;44.736;37.800;2023-07-16T04:16:37;10.73;;;6.10;;
78897;SDS011;70344;44.736;37.800;2023-07-16T04:17:38;15.50;;;5.55;;
78897;SDS011;70344;44.736;37.800;2023-07-16T04:18:43;12.70;;;5.47;;
78897;SDS011;70344;44.736;37.800;2023-07-16T04:19:44;9.15;;;4.50;;
78897;SDS011;70344;44.736;37.800;2023-07-16T04:20:51;7.88;;;4.30;;
78897;SDS011;70344;44.736;37.800;2023-07-16T04:21:53;8.10;;;3.28;;
78897;SDS011;70344;44.736;37.800;2023-07-16T04:22:55;8.35;;;3.70;;
78897;SDS011;70344;44.736;37.800;2023-07-16T04:24:00;8.10;;;3.55;;
78897;SDS011;70344;44.736;37.800;2023-07-16T04:25:05;7.90;;;3.47;;
78897;SDS011;70344;44.736;37.800;2023-07-16T04:26:07;7.80;;;3.38;;
78897;SDS011;70344;44.736;37.800;2023-07-16T04:27:08;7.30;;;2.85;;
78897;SDS011;70344;44.736;37.800;2023-07-16T04:28:11;7.60;;;3.22;;
78897;SDS011;70344;44.736;37.800;2023-07-16T04:29:18;9.07;;;2.90;;
78897;SDS011;70344;44.736;37.800;2023-07-16T04:30:20;7.78;;;2.90;;
78897;SDS011;70344;44.736;37.800;2023-07-16T04:31:24;12.50;;;3.20;;
78897;SDS011;70344;44.736;37.800;2023-07-16T04:32:26;10.55;;;3.83;;
78897;SDS011;70344;44.736;37.800;2023-07-16T04:33:28;6.70;;;2.90;;
78897;SDS011;70344;44.736;37.800;2023-07-16T04:34:33;6.47;;;2.45;;
78897;SDS011;70344;44.736;37.800;2023-07-16T04:35:37;6.97;;;3.00;;
78897;SDS011;70344;44.736;37.800;2023-07-16T04:36:39;8.73;;;3.10;;
78897;SDS011;70344;44.736;37.800;2023-07-16T04:37:41;7.95;;;2.97;;
78897;SDS011;70344;44.736;37.800;2023-07-16T04:38:45;9.40;;;2.97;;
78897;SDS011;70344;44.736;37.800;2023-07-16T04:39:47;8.55;;;3.17;;
78897;SDS011;70344;44.736;37.800;2023-07-16T04:40:49;7.50;;;2.80;;
78897;SDS011;70344;44.736;37.800;2023-07-16T04:41:51;7.50;;;2.85;;
78897;SDS011;70344;44.736;37.800;2023-07-16T04:42:52;8.70;;;2.83;;
78897;SDS011;70344;44.736;37.800;2023-07-16T04:43:54;6.80;;;2.90;;
78897;SDS011;70344;44.736;37.800;2023-07-16T04:44:56;7.70;;;2.90;;
78897;SDS011;70344;44.736;37.800;2023-07-16T04:46:01;7.22;;;2.92;;
78897;SDS011;70344;44.736;37.800;2023-07-16T04:47:03;6.97;;;3.20;;
78897;SDS011;70344;44.736;37.800;2023-07-16T04:48:07;10.00;;;3.20;;
78897;SDS011;70344;44.736;37.800;2023-07-16T04:49:09;9.52;;;3.10;;
78897;SDS011;70344;44.736;37.800;2023-07-16T04:50:13;9.13;;;2.75;;
78897;SDS011;70344;44.736;37.800;2023-07-16T04:51:18;6.10;;;2.80;;
78897;SDS011;70344;44.736;37.800;2023-07-16T04:52:22;8.15;;;2.88;;
78897;SDS011;70344;44.736;37.800;2023-07-16T04:53:26;6.35;;;2.53;;
78897;SDS011;70344;44.736;37.800;2023-07-16T04:54:34;7.57;;;3.00;;
78897;SDS011;70344;44.736;37.800;2023-07-16T04:55:38;8.55;;;2.97;;
78897;SDS011;70344;44.736;37.800;2023-07-16T04:56:44;6.53;;;2.67;;
78897;SDS011;70344;44.736;37.800;2023-07-16T04:57:45;7.07;;;3.03;;
78897;SDS011;70344;44.736;37.800;2023-07-16T04:58:49;6.38;;;2.35;;
78897;SDS011;70344;44.736;37.800;2023-07-16T04:59:51;9.75;;;3.10;;
78897;SDS011;70344;44.736;37.800;2023-07-16T05:00:53;5.78;;;2.72;;
78897;SDS011;70344;44.736;37.800;2023-07-16T05:01:55;7.25;;;2.80;;
78897;SDS011;70344;44.736;37.800;2023-07-16T05:02:57;9.40;;;3.00;;
78897;SDS011;70344;44.736;37.800;2023-07-16T05:03:59;11.48;;;2.70;;
78897;SDS011;70344;44.736;37.800;2023-07-16T05:05:06;8.35;;;2.60;;
78897;SDS011;70344;44.736;37.800;2023-07-16T05:06:10;7.30;;;2.40;;
78897;SDS011;70344;44.736;37.800;2023-07-16T05:07:17;6.22;;;2.45;;
78897;SDS011;70344;44.736;37.800;2023-07-16T05:08:21;7.28;;;2.55;;
78897;SDS011;70344;44.736;37.800;2023-07-16T05:09:25;7.50;;;2.80;;
78897;SDS011;70344;44.736;37.800;2023-07-16T05:10:27;10.45;;;2.38;;
78897;SDS011;70344;44.736;37.800;2023-07-16T05:11:32;5.93;;;2.35;;
78897;SDS011;70344;44.736;37.800;2023-07-16T05:12:34;6.95;;;2.50;;
78897;SDS011;70344;44.736;37.800;2023-07-16T05:13:36;8.93;;;2.20;;
78897;SDS011;70344;44.736;37.800;2023-07-16T05:14:45;5.80;;;2.22;;
78897;SDS011;70344;44.736;37.800;2023-07-16T05:15:48;9.07;;;2.33;;
78897;SDS011;70344;44.736;37.800;2023-07-16T05:16:53;5.63;;;2.13;;
78897;SDS011;70344;44.736;37.800;2023-07-16T05:17:57;6.15;;;2.20;;
78897;SDS011;70344;44.736;37.800;2023-07-16T05:19:03;7.05;;;2.45;;
78897;SDS011;70344;44.736;37.800;2023-07-16T05:20:07;8.00;;;2.40;;
78897;SDS011;70344;44.736;37.800;2023-07-16T05:21:10;10.85;;;2.53;;
78897;SDS011;70344;44.736;37.800;2023-07-16T05:22:12;6.47;;;2.45;;
78897;SDS011;70344;44.736;37.800;2023-07-16T05:23:14;5.18;;;2.17;;
78897;SDS011;70344;44.736;37.800;2023-07-16T05:24:19;5.10;;;2.13;;
78897;SDS011;70344;44.736;37.800;2023-07-16T05:25:24;5.68;;;2.20;;
78897;SDS011;70344;44.736;37.800;2023-07-16T05:26:26;8.50;;;2.35;;
78897;SDS011;70344;44.736;37.800;2023-07-16T05:27:30;7.60;;;2.30;;
78897;SDS011;70344;44.736;37.800;2023-07-16T05:28:32;11.45;;;2.85;;
78897;SDS011;70344;44.736;37.800;2023-07-16T05:29:38;6.45;;;2.10;;
78897;SDS011;70344;44.736;37.800;2023-07-16T05:30:43;5.55;;;2.30;;
78897;SDS011;70344;44.736;37.800;2023-07-16T05:31:44;5.97;;;2.30;;
78897;SDS011;70344;44.736;37.800;2023-07-16T05:32:47;4.95;;;2.03;;
78897;SDS011;70344;44.736;37.800;2023-07-16T05:33:49;7.28;;;2.33;;
78897;SDS011;70344;44.736;37.800;2023-07-16T05:34:51;6.13;;;2.15;;
78897;SDS011;70344;44.736;37.800;2023-07-16T05:35:53;5.50;;;2.33;;
78897;SDS011;70344;44.736;37.800;2023-07-16T05:36:58;6.20;;;2.30;;
78897;SDS011;70344;44.736;37.800;2023-07-16T05:38:03;7.13;;;2.35;;
78897;SDS011;70344;44.736;37.800;2023-07-16T05:39:05;7.80;;;1.92;;
78897;SDS011;70344;44.736;37.800;2023-07-16T05:40:06;5.78;;;2.05;;
78897;SDS011;70344;44.736;37.800;2023-07-16T05:41:09;6.65;;;2.08;;
78897;SDS011;70344;44.736;37.800;2023-07-16T05:42:14;7.90;;;2.50;;
78897;SDS011;70344;44.736;37.800;2023-07-16T05:43:15;10.95;;;2.75;;
78897;SDS011;70344;44.736;37.800;2023-07-16T05:44:20;5.55;;;1.92;;
78897;SDS011;70344;44.736;37.800;2023-07-16T05:45:24;7.97;;;2.33;;
78897;SDS011;70344;44.736;37.800;2023-07-16T05:46:25;5.45;;;2.28;;
78897;SDS011;70344;44.736;37.800;2023-07-16T05:47:27;7.32;;;2.20;;
78897;SDS011;70344;44.736;37.800;2023-07-16T05:48:29;9.45;;;2.38;;
78897;SDS011;70344;44.736;37.800;2023-07-16T05:49:31;6.20;;;2.20;;
78897;SDS011;70344;44.736;37.800;2023-07-16T05:50:33;6.78;;;2.30;;
78897;SDS011;70344;44.736;37.800;2023-07-16T05:51:40;5.07;;;2.15;;
78897;SDS011;70344;44.736;37.800;2023-07-16T05:52:46;5.85;;;2.28;;
78897;SDS011;70344;44.736;37.800;2023-07-16T05:53:53;6.50;;;2.10;;
78897;SDS011;70344;44.736;37.800;2023-07-16T05:54:58;8.32;;;2.13;;
78897;SDS011;70344;44.736;37.800;2023-07-16T05:56:00;6.60;;;2.00;;
78897;SDS011;70344;44.736;37.800;2023-07-16T05:57:02;5.93;;;2.15;;
78897;SDS011;70344;44.736;37.800;2023-07-16T05:58:04;4.88;;;1.83;;
78897;SDS011;70344;44.736;37.800;2023-07-16T05:59:05;10.32;;;2.08;;
78897;SDS011;70344;44.736;37.800;2023-07-16T06:00:13;5.82;;;1.92;;
78897;SDS011;70344;44.736;37.800;2023-07-16T06:01:20;5.38;;;2.25;;
78897;SDS011;70344;44.736;37.800;2023-07-16T06:02:27;8.35;;;2.05;;
78897;SDS011;70344;44.736;37.800;2023-07-16T06:03:31;6.60;;;2.08;;
78897;SDS011;70344;44.736;37.800;2023-07-16T06:04:33;5.15;;;2.10;;
78897;SDS011;70344;44.736;37.800;2023-07-16T06:05:35;6.82;;;2.15;;
78897;SDS011;70344;44.736;37.800;2023-07-16T06:06:38;6.38;;;2.47;;
78897;SDS011;70344;44.736;37.800;2023-07-16T06:07:40;6.03;;;2.10;;
78897;SDS011;70344;44.736;37.800;2023-07-16T06:08:41;6.30;;;2.45;;
78897;SDS011;70344;44.736;37.800;2023-07-16T06:09:47;5.32;;;1.85;;
78897;SDS011;70344;44.736;37.800;2023-07-16T06:10:49;7.18;;;2.17;;
78897;SDS011;70344;44.736;37.800;2023-07-16T06:11:51;5.10;;;2.00;;
78897;SDS011;70344;44.736;37.800;2023-07-16T06:12:53;6.57;;;1.95;;
78897;SDS011;70344;44.736;37.800;2023-07-16T06:13:55;5.35;;;2.03;;
78897;SDS011;70344;44.736;37.800;2023-07-16T06:14:57;5.38;;;2.13;;
78897;SDS011;70344;44.736;37.800;2023-07-16T06:16:01;5.68;;;1.90;;
78897;SDS011;70344;44.736;37.800;2023-07-16T06:17:03;6.32;;;2.00;;
78897;SDS011;70344;44.736;37.800;2023-07-16T06:18:05;6.22;;;2.00;;
78897;SDS011;70344;44.736;37.800;2023-07-16T06:19:07;6.85;;;2.05;;
78897;SDS011;70344;44.736;37.800;2023-07-16T06:20:11;8.68;;;2.05;;
78897;SDS011;70344;44.736;37.800;2023-07-16T06:21:13;8.05;;;2.22;;
78897;SDS011;70344;44.736;37.800;2023-07-16T06:22:16;7.47;;;1.85;;
78897;SDS011;70344;44.736;37.800;2023-07-16T06:23:18;5.95;;;1.90;;
78897;SDS011;70344;44.736;37.800;2023-07-16T06:24:20;5.38;;;1.80;;
78897;SDS011;70344;44.736;37.800;2023-07-16T06:25:27;6.68;;;1.90;;
78897;SDS011;70344;44.736;37.800;2023-07-16T06:26:29;6.82;;;1.98;;